sensor_id;sensor_type;location;lat;lon;timestamp;P1;durP1;ratioP1;P2;durP2;ratioP2
62332;SDS011;48624;49.812;8.562;2023-07-13T00:00:27;535.03;;;513.85;;
62332;SDS011;48624;49.812;8.562;2023-07-13T00:02:53;569.80;;;546.35;;
62332;SDS011;48624;49.812;8.562;2023-07-13T00:05:22;507.88;;;488.50;;
62332;SDS011;48624;49.812;8.562;2023-07-13T00:07:49;398.50;;;383.92;;
62332;SDS011;48624;49.812;8.562;2023-07-13T00:10:15;355.63;;;342.92;;
62332;SDS011;48624;49.812;8.562;2023-07-13T00:12:41;259.30;;;250.43;;
62332;SDS011;48624;49.812;8.562;2023-07-13T00:15:09;277.85;;;268.15;;
62332;SDS011;48624;49.812;8.562;2023-07-13T00:17:41;174.88;;;169.05;;
62332;SDS011;48624;49.812;8.562;2023-07-13T00:20:07;195.63;;;189.00;;
62332;SDS011;48624;49.812;8.562;2023-07-13T00:22:33;211.45;;;204.38;;
62332;SDS011;48624;49.812;8.562;2023-07-13T00:24:59;186.73;;;180.27;;
62332;SDS011;48624;49.812;8.562;2023-07-13T00:27:24;291.33;;;281.15;;
62332;SDS011;48624;49.812;8.562;2023-07-13T00:29:54;255.48;;;246.88;;
62332;SDS011;48624;49.812;8.562;2023-07-13T00:32:20;382.02;;;368.42;;
62332;SDS011;48624;49.812;8.562;2023-07-13T00:34:45;311.25;;;300.63;;
62332;SDS011;48624;49.812;8.562;2023-07-13T00:37:11;423.92;;;408.38;;
62332;SDS011;48624;49.812;8.562;2023-07-13T00:39:36;451.08;;;434.40;;
62332;SDS011;48624;49.812;8.562;2023-07-13T00:42:02;483.73;;;465.13;;
62332;SDS011;48624;49.812;8.562;2023-07-13T00:44:28;544.42;;;522.85;;
62332;SDS011;48624;49.812;8.562;2023-07-13T00:46:54;547.80;;;525.42;;
62332;SDS011;48624;49.812;8.562;2023-07-13T00:49:22;568.17;;;545.25;;
62332;SDS011;48624;49.812;8.562;2023-07-13T00:51:50;643.35;;;614.90;;
62332;SDS011;48624;49.812;8.562;2023-07-13T00:54:19;703.25;;;670.60;;
62332;SDS011;48624;49.812;8.562;2023-07-13T00:57:06;687.08;;;655.53;;
62332;SDS011;48624;49.812;8.562;2023-07-13T00:59:34;738.85;;;703.08;;
62332;SDS011;48624;49.812;8.562;2023-07-13T01:02:01;719.92;;;685.17;;
62332;SDS011;48624;49.812;8.562;2023-07-13T01:04:27;700.60;;;668.22;;
62332;SDS011;48624;49.812;8.562;2023-07-13T01:06:53;680.30;;;649.22;;
62332;SDS011;48624;49.812;8.562;2023-07-13T01:09:19;723.38;;;688.95;;
62332;SDS011;48624;49.812;8.562;2023-07-13T01:11:45;681.13;;;650.22;;
62332;SDS011;48624;49.812;8.562;2023-07-13T01:14:10;773.67;;;734.42;;
62332;SDS011;48624;49.812;8.562;2023-07-13T01:16:36;839.05;;;794.72;;
62332;SDS011;48624;49.812;8.562;2023-07-13T01:19:03;853.25;;;807.50;;
62332;SDS011;48624;49.812;8.562;2023-07-13T01:21:44;903.88;;;853.58;;
62332;SDS011;48624;49.812;8.562;2023-07-13T01:24:15;900.95;;;850.95;;
62332;SDS011;48624;49.812;8.562;2023-07-13T01:26:40;889.92;;;841.45;;
62332;SDS011;48624;49.812;8.562;2023-07-13T01:29:06;898.25;;;848.88;;
62332;SDS011;48624;49.812;8.562;2023-07-13T01:31:32;877.03;;;829.10;;
62332;SDS011;48624;49.812;8.562;2023-07-13T01:33:57;893.10;;;843.55;;
62332;SDS011;48624;49.812;8.562;2023-07-13T01:36:23;897.45;;;847.92;;
62332;SDS011;48624;49.812;8.562;2023-07-13T01:38:48;876.97;;;828.63;;
62332;SDS011;48624;49.812;8.562;2023-07-13T01:41:14;871.50;;;823.95;;
62332;SDS011;48624;49.812;8.562;2023-07-13T01:43:39;881.95;;;833.85;;
62332;SDS011;48624;49.812;8.562;2023-07-13T01:46:04;860.53;;;814.33;;
62332;SDS011;48624;49.812;8.562;2023-07-13T01:48:30;844.80;;;800.10;;
62332;SDS011;48624;49.812;8.562;2023-07-13T01:50:55;827.50;;;784.85;;
62332;SDS011;48624;49.812;8.562;2023-07-13T01:53:20;822.55;;;780.22;;
62332;SDS011;48624;49.812;8.562;2023-07-13T01:55:46;825.60;;;782.55;;
62332;SDS011;48624;49.812;8.562;2023-07-13T01:58:11;825.40;;;781.97;;
62332;SDS011;48624;49.812;8.562;2023-07-13T02:00:36;799.38;;;759.50;;
62332;SDS011;48624;49.812;8.562;2023-07-13T02:03:01;824.17;;;781.35;;
62332;SDS011;48624;49.812;8.562;2023-07-13T02:05:27;810.63;;;769.40;;
62332;SDS011;48624;49.812;8.562;2023-07-13T02:07:52;809.58;;;768.60;;
62332;SDS011;48624;49.812;8.562;2023-07-13T02:10:17;808.28;;;767.60;;
62332;SDS011;48624;49.812;8.562;2023-07-13T02:12:43;811.65;;;770.55;;
62332;SDS011;48624;49.812;8.562;2023-07-13T02:15:09;823.47;;;780.95;;
62332;SDS011;48624;49.812;8.562;2023-07-13T02:17:35;805.65;;;764.70;;
62332;SDS011;48624;49.812;8.562;2023-07-13T02:20:01;807.03;;;765.58;;
62332;SDS011;48624;49.812;8.562;2023-07-13T02:22:28;856.95;;;810.78;;
62332;SDS011;48624;49.812;8.562;2023-07-13T02:24:53;896.08;;;846.22;;
62332;SDS011;48624;49.812;8.562;2023-07-13T02:27:19;915.35;;;863.80;;
62332;SDS011;48624;49.812;8.562;2023-07-13T02:29:44;885.08;;;836.08;;
62332;SDS011;48624;49.812;8.562;2023-07-13T02:32:10;910.05;;;858.85;;
62332;SDS011;48624;49.812;8.562;2023-07-13T02:34:35;914.97;;;863.95;;
62332;SDS011;48624;49.812;8.562;2023-07-13T02:37:00;874.97;;;826.67;;
62332;SDS011;48624;49.812;8.562;2023-07-13T02:39:26;850.13;;;805.15;;
62332;SDS011;48624;49.812;8.562;2023-07-13T02:41:51;852.55;;;806.83;;
62332;SDS011;48624;49.812;8.562;2023-07-13T02:44:16;855.97;;;810.45;;
62332;SDS011;48624;49.812;8.562;2023-07-13T02:46:41;814.03;;;772.03;;
62332;SDS011;48624;49.812;8.562;2023-07-13T02:49:08;828.83;;;784.92;;
62332;SDS011;48624;49.812;8.562;2023-07-13T02:51:34;831.90;;;788.60;;
62332;SDS011;48624;49.812;8.562;2023-07-13T02:54:00;821.63;;;778.97;;
62332;SDS011;48624;49.812;8.562;2023-07-13T02:56:27;827.72;;;784.58;;
62332;SDS011;48624;49.812;8.562;2023-07-13T02:58:54;817.22;;;775.42;;
62332;SDS011;48624;49.812;8.562;2023-07-13T03:01:20;821.05;;;778.15;;
62332;SDS011;48624;49.812;8.562;2023-07-13T03:03:46;834.75;;;790.55;;
62332;SDS011;48624;49.812;8.562;2023-07-13T03:06:13;846.53;;;800.53;;
62332;SDS011;48624;49.812;8.562;2023-07-13T03:08:39;863.05;;;817.40;;
62332;SDS011;48624;49.812;8.562;2023-07-13T03:11:07;864.08;;;817.58;;
62332;SDS011;48624;49.812;8.562;2023-07-13T03:13:33;867.00;;;819.97;;
62332;SDS011;48624;49.812;8.562;2023-07-13T03:15:59;891.20;;;842.95;;
62332;SDS011;48624;49.812;8.562;2023-07-13T03:18:26;889.28;;;840.50;;
62332;SDS011;48624;49.812;8.562;2023-07-13T03:20:52;893.85;;;845.17;;
62332;SDS011;48624;49.812;8.562;2023-07-13T03:23:18;867.47;;;819.90;;
62332;SDS011;48624;49.812;8.562;2023-07-13T03:25:43;872.72;;;825.17;;
62332;SDS011;48624;49.812;8.562;2023-07-13T03:28:10;874.28;;;826.72;;
62332;SDS011;48624;49.812;8.562;2023-07-13T03:30:35;874.78;;;827.15;;
62332;SDS011;48624;49.812;8.562;2023-07-13T03:33:01;870.70;;;823.33;;
62332;SDS011;48624;49.812;8.562;2023-07-13T03:35:26;859.95;;;814.35;;
62332;SDS011;48624;49.812;8.562;2023-07-13T03:37:52;848.83;;;803.35;;
62332;SDS011;48624;49.812;8.562;2023-07-13T03:40:17;850.13;;;804.78;;
62332;SDS011;48624;49.812;8.562;2023-07-13T03:42:42;845.40;;;801.28;;
62332;SDS011;48624;49.812;8.562;2023-07-13T03:45:08;837.42;;;793.45;;
62332;SDS011;48624;49.812;8.562;2023-07-13T03:47:33;823.75;;;781.90;;
62332;SDS011;48624;49.812;8.562;2023-07-13T03:49:58;810.63;;;769.45;;
62332;SDS011;48624;49.812;8.562;2023-07-13T03:52:24;819.88;;;778.30;;
62332;SDS011;48624;49.812;8.562;2023-07-13T03:54:49;824.30;;;782.35;;
62332;SDS011;48624;49.812;8.562;2023-07-13T03:57:15;852.80;;;807.22;;
62332;SDS011;48624;49.812;8.562;2023-07-13T03:59:40;849.75;;;805.08;;
62332;SDS011;48624;49.812;8.562;2023-07-13T04:02:05;841.65;;;797.38;;
62332;SDS011;48624;49.812;8.562;2023-07-13T04:04:30;811.63;;;770.15;;
62332;SDS011;48624;49.812;8.562;2023-07-13T04:06:57;828.35;;;785.33;;
62332;SDS011;48624;49.812;8.562;2023-07-13T04:09:23;832.25;;;788.90;;
62332;SDS011;48624;49.812;8.562;2023-07-13T04:11:49;824.00;;;781.42;;
62332;SDS011;48624;49.812;8.562;2023-07-13T04:14:14;797.28;;;757.45;;
62332;SDS011;48624;49.812;8.562;2023-07-13T04:16:39;803.78;;;763.38;;
62332;SDS011;48624;49.812;8.562;2023-07-13T04:19:05;814.15;;;772.95;;
62332;SDS011;48624;49.812;8.562;2023-07-13T04:21:30;818.47;;;777.17;;
62332;SDS011;48624;49.812;8.562;2023-07-13T04:23:56;818.55;;;776.88;;
62332;SDS011;48624;49.812;8.562;2023-07-13T04:26:22;810.60;;;769.63;;
62332;SDS011;48624;49.812;8.562;2023-07-13T04:28:48;813.78;;;771.78;;
62332;SDS011;48624;49.812;8.562;2023-07-13T04:31:15;826.50;;;784.05;;
62332;SDS011;48624;49.812;8.562;2023-07-13T04:33:41;811.00;;;769.78;;
62332;SDS011;48624;49.812;8.562;2023-07-13T04:36:08;810.90;;;769.70;;
62332;SDS011;48624;49.812;8.562;2023-07-13T04:38:34;824.75;;;782.55;;
62332;SDS011;48624;49.812;8.562;2023-07-13T04:41:00;831.72;;;788.22;;
62332;SDS011;48624;49.812;8.562;2023-07-13T04:43:28;834.38;;;789.72;;
62332;SDS011;48624;49.812;8.562;2023-07-13T04:45:55;839.75;;;795.63;;
62332;SDS011;48624;49.812;8.562;2023-07-13T04:48:21;838.35;;;794.20;;
62332;SDS011;48624;49.812;8.562;2023-07-13T04:50:47;839.58;;;794.45;;
62332;SDS011;48624;49.812;8.562;2023-07-13T04:53:13;842.67;;;797.50;;
62332;SDS011;48624;49.812;8.562;2023-07-13T04:55:39;852.83;;;807.03;;
62332;SDS011;48624;49.812;8.562;2023-07-13T04:58:05;848.85;;;803.95;;
62332;SDS011;48624;49.812;8.562;2023-07-13T05:00:31;841.00;;;796.30;;
62332;SDS011;48624;49.812;8.562;2023-07-13T05:02:57;840.63;;;796.13;;
62332;SDS011;48624;49.812;8.562;2023-07-13T05:05:24;819.38;;;777.35;;
62332;SDS011;48624;49.812;8.562;2023-07-13T05:07:51;803.72;;;762.25;;
62332;SDS011;48624;49.812;8.562;2023-07-13T05:10:16;781.58;;;743.75;;
62332;SDS011;48624;49.812;8.562;2023-07-13T05:12:42;768.85;;;731.08;;
62332;SDS011;48624;49.812;8.562;2023-07-13T05:15:07;727.72;;;693.28;;
62332;SDS011;48624;49.812;8.562;2023-07-13T05:17:33;734.72;;;699.78;;
62332;SDS011;48624;49.812;8.562;2023-07-13T05:19:58;751.67;;;715.85;;
62332;SDS011;48624;49.812;8.562;2023-07-13T05:22:23;744.45;;;708.75;;
62332;SDS011;48624;49.812;8.562;2023-07-13T05:24:49;736.20;;;701.65;;
62332;SDS011;48624;49.812;8.562;2023-07-13T05:27:14;735.67;;;700.90;;
62332;SDS011;48624;49.812;8.562;2023-07-13T05:29:40;736.60;;;701.70;;
62332;SDS011;48624;49.812;8.562;2023-07-13T05:32:05;746.67;;;710.78;;
62332;SDS011;48624;49.812;8.562;2023-07-13T05:34:31;709.25;;;677.17;;
62332;SDS011;48624;49.812;8.562;2023-07-13T05:36:56;738.90;;;704.10;;
62332;SDS011;48624;49.812;8.562;2023-07-13T05:39:22;706.78;;;674.28;;
62332;SDS011;48624;49.812;8.562;2023-07-13T05:41:47;715.17;;;682.50;;
62332;SDS011;48624;49.812;8.562;2023-07-13T05:44:15;696.90;;;665.30;;
62332;SDS011;48624;49.812;8.562;2023-07-13T05:46:40;693.92;;;663.28;;
62332;SDS011;48624;49.812;8.562;2023-07-13T05:49:05;660.97;;;631.92;;
62332;SDS011;48624;49.812;8.562;2023-07-13T05:51:31;696.47;;;665.25;;
62332;SDS011;48624;49.812;8.562;2023-07-13T05:53:56;705.20;;;672.90;;
62332;SDS011;48624;49.812;8.562;2023-07-13T05:56:21;670.50;;;640.30;;
62332;SDS011;48624;49.812;8.562;2023-07-13T05:58:47;685.78;;;655.15;;
62332;SDS011;48624;49.812;8.562;2023-07-13T06:01:13;496.73;;;477.55;;
62332;SDS011;48624;49.812;8.562;2023-07-13T06:03:40;491.02;;;471.92;;
62332;SDS011;48624;49.812;8.562;2023-07-13T06:06:06;560.05;;;537.58;;
62332;SDS011;48624;49.812;8.562;2023-07-13T06:08:33;621.85;;;595.60;;
62332;SDS011;48624;49.812;8.562;2023-07-13T06:11:02;566.35;;;543.38;;
62332;SDS011;48624;49.812;8.562;2023-07-13T06:13:28;317.23;;;306.85;;
62332;SDS011;48624;49.812;8.562;2023-07-13T06:15:54;205.73;;;198.98;;
62332;SDS011;48624;49.812;8.562;2023-07-13T06:18:20;179.90;;;173.82;;
62332;SDS011;48624;49.812;8.562;2023-07-13T06:20:46;95.13;;;92.03;;
62332;SDS011;48624;49.812;8.562;2023-07-13T06:23:11;84.90;;;82.10;;
62332;SDS011;48624;49.812;8.562;2023-07-13T06:25:37;183.45;;;177.27;;
62332;SDS011;48624;49.812;8.562;2023-07-13T06:28:02;166.15;;;160.50;;
62332;SDS011;48624;49.812;8.562;2023-07-13T06:30:27;165.48;;;159.93;;
62332;SDS011;48624;49.812;8.562;2023-07-13T06:32:54;64.82;;;62.65;;
62332;SDS011;48624;49.812;8.562;2023-07-13T06:35:19;75.60;;;73.03;;
62332;SDS011;48624;49.812;8.562;2023-07-13T06:37:44;34.00;;;32.78;;
62332;SDS011;48624;49.812;8.562;2023-07-13T06:40:10;22.60;;;21.75;;
62332;SDS011;48624;49.812;8.562;2023-07-13T06:42:35;7.05;;;6.70;;
62332;SDS011;48624;49.812;8.562;2023-07-13T06:45:01;9.68;;;9.13;;
62332;SDS011;48624;49.812;8.562;2023-07-13T06:47:26;6.50;;;3.42;;
62332;SDS011;48624;49.812;8.562;2023-07-13T06:49:53;9.43;;;8.93;;
62332;SDS011;48624;49.812;8.562;2023-07-13T06:52:18;10.30;;;9.80;;
62332;SDS011;48624;49.812;8.562;2023-07-13T06:54:43;3.05;;;2.80;;
62332;SDS011;48624;49.812;8.562;2023-07-13T06:57:09;4.50;;;4.30;;
62332;SDS011;48624;49.812;8.562;2023-07-13T06:59:34;3.97;;;2.13;;
62332;SDS011;48624;49.812;8.562;2023-07-13T07:01:59;3.83;;;1.85;;
62332;SDS011;48624;49.812;8.562;2023-07-13T07:04:24;2.72;;;2.50;;
62332;SDS011;48624;49.812;8.562;2023-07-13T07:06:50;2.05;;;1.85;;
62332;SDS011;48624;49.812;8.562;2023-07-13T07:09:15;2.70;;;2.33;;
62332;SDS011;48624;49.812;8.562;2023-07-13T07:11:41;2.83;;;2.00;;
62332;SDS011;48624;49.812;8.562;2023-07-13T07:14:07;2.70;;;0.75;;
62332;SDS011;48624;49.812;8.562;2023-07-13T07:16:34;4.45;;;1.35;;
62332;SDS011;48624;49.812;8.562;2023-07-13T07:18:59;3.78;;;1.50;;
62332;SDS011;48624;49.812;8.562;2023-07-13T07:21:25;3.63;;;2.13;;
62332;SDS011;48624;49.812;8.562;2023-07-13T07:23:51;3.55;;;1.35;;
62332;SDS011;48624;49.812;8.562;2023-07-13T07:26:16;1.42;;;0.93;;
62332;SDS011;48624;49.812;8.562;2023-07-13T07:28:42;2.63;;;0.73;;
62332;SDS011;48624;49.812;8.562;2023-07-13T07:31:07;3.22;;;0.90;;
62332;SDS011;48624;49.812;8.562;2023-07-13T07:33:33;0.77;;;0.77;;
62332;SDS011;48624;49.812;8.562;2023-07-13T07:35:59;2.00;;;1.00;;
62332;SDS011;48624;49.812;8.562;2023-07-13T07:38:24;0.95;;;0.75;;
62332;SDS011;48624;49.812;8.562;2023-07-13T07:40:50;5.07;;;1.33;;
62332;SDS011;48624;49.812;8.562;2023-07-13T07:43:15;3.67;;;0.95;;
62332;SDS011;48624;49.812;8.562;2023-07-13T07:45:41;1.95;;;0.70;;
62332;SDS011;48624;49.812;8.562;2023-07-13T07:48:06;1.85;;;0.82;;
62332;SDS011;48624;49.812;8.562;2023-07-13T07:50:32;1.60;;;0.45;;
62332;SDS011;48624;49.812;8.562;2023-07-13T07:52:58;2.03;;;0.38;;
62332;SDS011;48624;49.812;8.562;2023-07-13T07:55:23;1.70;;;1.00;;
62332;SDS011;48624;49.812;8.562;2023-07-13T07:57:52;3.03;;;1.00;;
62332;SDS011;48624;49.812;8.562;2023-07-13T08:00:18;4.63;;;0.68;;
62332;SDS011;48624;49.812;8.562;2023-07-13T08:02:43;4.43;;;0.70;;
62332;SDS011;48624;49.812;8.562;2023-07-13T08:05:09;3.28;;;0.98;;
62332;SDS011;48624;49.812;8.562;2023-07-13T08:07:37;5.72;;;0.73;;
62332;SDS011;48624;49.812;8.562;2023-07-13T08:10:03;1.75;;;0.63;;
62332;SDS011;48624;49.812;8.562;2023-07-13T08:12:30;3.38;;;0.90;;
62332;SDS011;48624;49.812;8.562;2023-07-13T08:14:58;2.88;;;0.90;;
62332;SDS011;48624;49.812;8.562;2023-07-13T08:17:25;2.88;;;0.52;;
62332;SDS011;48624;49.812;8.562;2023-07-13T08:19:50;3.17;;;1.25;;
62332;SDS011;48624;49.812;8.562;2023-07-13T08:22:16;3.70;;;0.75;;
62332;SDS011;48624;49.812;8.562;2023-07-13T08:24:41;3.13;;;0.80;;
62332;SDS011;48624;49.812;8.562;2023-07-13T08:27:12;1.83;;;0.50;;
62332;SDS011;48624;49.812;8.562;2023-07-13T08:29:38;0.47;;;0.40;;
62332;SDS011;48624;49.812;8.562;2023-07-13T08:32:04;4.60;;;0.73;;
62332;SDS011;48624;49.812;8.562;2023-07-13T08:34:34;0.98;;;0.50;;
62332;SDS011;48624;49.812;8.562;2023-07-13T08:36:59;2.10;;;0.50;;
62332;SDS011;48624;49.812;8.562;2023-07-13T08:39:24;1.38;;;0.68;;
62332;SDS011;48624;49.812;8.562;2023-07-13T08:41:59;1.00;;;0.50;;
62332;SDS011;48624;49.812;8.562;2023-07-13T08:44:43;1.63;;;0.70;;
62332;SDS011;48624;49.812;8.562;2023-07-13T08:47:23;2.53;;;0.65;;
62332;SDS011;48624;49.812;8.562;2023-07-13T08:49:50;1.65;;;0.80;;
62332;SDS011;48624;49.812;8.562;2023-07-13T08:54:57;8.82;;;0.90;;
62332;SDS011;48624;49.812;8.562;2023-07-13T08:57:48;2.53;;;0.85;;
62332;SDS011;48624;49.812;8.562;2023-07-13T09:00:19;3.05;;;0.52;;
62332;SDS011;48624;49.812;8.562;2023-07-13T09:02:46;1.38;;;0.70;;
62332;SDS011;48624;49.812;8.562;2023-07-13T09:05:29;1.30;;;0.43;;
62332;SDS011;48624;49.812;8.562;2023-07-13T09:14:26;1.63;;;0.73;;
62332;SDS011;48624;49.812;8.562;2023-07-13T09:17:02;1.88;;;0.55;;
62332;SDS011;48624;49.812;8.562;2023-07-13T09:19:30;4.30;;;0.75;;
62332;SDS011;48624;49.812;8.562;2023-07-13T09:21:59;2.63;;;0.65;;
62332;SDS011;48624;49.812;8.562;2023-07-13T09:24:38;1.20;;;0.85;;
62332;SDS011;48624;49.812;8.562;2023-07-13T09:27:19;0.73;;;0.43;;
62332;SDS011;48624;49.812;8.562;2023-07-13T09:30:22;1.88;;;0.52;;
62332;SDS011;48624;49.812;8.562;2023-07-13T09:32:39;1.10;;;0.40;;
62332;SDS011;48624;49.812;8.562;2023-07-13T09:35:11;2.30;;;0.85;;
62332;SDS011;48624;49.812;8.562;2023-07-13T09:37:38;2.30;;;0.68;;
62332;SDS011;48624;49.812;8.562;2023-07-13T09:40:07;3.70;;;0.75;;
62332;SDS011;48624;49.812;8.562;2023-07-13T09:42:41;2.10;;;0.73;;
62332;SDS011;48624;49.812;8.562;2023-07-13T09:45:07;1.65;;;0.43;;
62332;SDS011;48624;49.812;8.562;2023-07-13T09:47:38;2.22;;;1.27;;
62332;SDS011;48624;49.812;8.562;2023-07-13T09:50:09;2.55;;;0.70;;
62332;SDS011;48624;49.812;8.562;2023-07-13T09:52:43;2.35;;;0.80;;
62332;SDS011;48624;49.812;8.562;2023-07-13T09:55:27;1.52;;;0.90;;
62332;SDS011;48624;49.812;8.562;2023-07-13T09:58:18;2.47;;;0.57;;
62332;SDS011;48624;49.812;8.562;2023-07-13T10:01:03;1.02;;;0.60;;
62332;SDS011;48624;49.812;8.562;2023-07-13T10:03:30;2.40;;;0.80;;
62332;SDS011;48624;49.812;8.562;2023-07-13T10:06:12;2.00;;;0.40;;
62332;SDS011;48624;49.812;8.562;2023-07-13T10:08:42;4.05;;;0.90;;
62332;SDS011;48624;49.812;8.562;2023-07-13T10:11:12;3.60;;;1.25;;
62332;SDS011;48624;49.812;8.562;2023-07-13T10:13:50;1.77;;;1.63;;
62332;SDS011;48624;49.812;8.562;2023-07-13T10:16:20;1.20;;;1.10;;
62332;SDS011;48624;49.812;8.562;2023-07-13T10:18:50;4.65;;;1.90;;
62332;SDS011;48624;49.812;8.562;2023-07-13T10:21:21;4.90;;;1.17;;
62332;SDS011;48624;49.812;8.562;2023-07-13T10:23:57;1.85;;;1.08;;
62332;SDS011;48624;49.812;8.562;2023-07-13T10:26:48;1.33;;;0.63;;
62332;SDS011;48624;49.812;8.562;2023-07-13T10:29:18;3.60;;;1.52;;
62332;SDS011;48624;49.812;8.562;2023-07-13T10:31:47;1.83;;;0.85;;
62332;SDS011;48624;49.812;8.562;2023-07-13T10:34:12;1.42;;;0.60;;
62332;SDS011;48624;49.812;8.562;2023-07-13T10:36:42;2.03;;;1.90;;
62332;SDS011;48624;49.812;8.562;2023-07-13T10:39:20;1.42;;;1.15;;
62332;SDS011;48624;49.812;8.562;2023-07-13T10:41:50;1.52;;;1.20;;
62332;SDS011;48624;49.812;8.562;2023-07-13T10:44:26;7.80;;;7.30;;
62332;SDS011;48624;49.812;8.562;2023-07-13T10:46:57;21.92;;;21.13;;
62332;SDS011;48624;49.812;8.562;2023-07-13T10:49:26;12.30;;;11.45;;
62332;SDS011;48624;49.812;8.562;2023-07-13T10:51:54;3.75;;;3.45;;
62332;SDS011;48624;49.812;8.562;2023-07-13T10:54:21;1.88;;;1.70;;
62332;SDS011;48624;49.812;8.562;2023-07-13T10:57:07;5.90;;;5.45;;
62332;SDS011;48624;49.812;8.562;2023-07-13T10:59:41;8.32;;;7.82;;
62332;SDS011;48624;49.812;8.562;2023-07-13T11:02:13;13.55;;;13.05;;
62332;SDS011;48624;49.812;8.562;2023-07-13T11:04:48;7.15;;;6.88;;
62332;SDS011;48624;49.812;8.562;2023-07-13T11:07:19;10.98;;;10.57;;
62332;SDS011;48624;49.812;8.562;2023-07-13T11:09:56;7.80;;;7.25;;
62332;SDS011;48624;49.812;8.562;2023-07-13T11:22:43;7.97;;;7.47;;
62332;SDS011;48624;49.812;8.562;2023-07-13T11:27:45;4.78;;;4.25;;
62332;SDS011;48624;49.812;8.562;2023-07-13T11:30:24;9.07;;;8.68;;
62332;SDS011;48624;49.812;8.562;2023-07-13T11:33:10;9.18;;;8.68;;
62332;SDS011;48624;49.812;8.562;2023-07-13T11:35:53;8.82;;;8.52;;
62332;SDS011;48624;49.812;8.562;2023-07-13T11:38:40;33.30;;;32.20;;
62332;SDS011;48624;49.812;8.562;2023-07-13T11:41:15;94.70;;;91.38;;
62332;SDS011;48624;49.812;8.562;2023-07-13T11:43:44;43.83;;;42.33;;
62332;SDS011;48624;49.812;8.562;2023-07-13T11:46:14;138.95;;;134.15;;
62332;SDS011;48624;49.812;8.562;2023-07-13T11:48:41;215.23;;;207.80;;
62332;SDS011;48624;49.812;8.562;2023-07-13T11:51:11;244.70;;;235.82;;
62332;SDS011;48624;49.812;8.562;2023-07-13T11:53:45;189.57;;;183.13;;
62332;SDS011;48624;49.812;8.562;2023-07-13T11:56:12;224.65;;;216.85;;
62332;SDS011;48624;49.812;8.562;2023-07-13T11:58:38;215.32;;;207.55;;
62332;SDS011;48624;49.812;8.562;2023-07-13T12:01:04;258.70;;;249.68;;
62332;SDS011;48624;49.812;8.562;2023-07-13T12:03:32;316.85;;;305.27;;
62332;SDS011;48624;49.812;8.562;2023-07-13T12:06:01;388.50;;;373.10;;
62332;SDS011;48624;49.812;8.562;2023-07-13T12:08:30;295.33;;;284.50;;
62332;SDS011;48624;49.812;8.562;2023-07-13T12:11:00;268.38;;;258.98;;
62332;SDS011;48624;49.812;8.562;2023-07-13T12:13:34;308.02;;;296.75;;
62332;SDS011;48624;49.812;8.562;2023-07-13T12:16:00;289.65;;;279.27;;
62332;SDS011;48624;49.812;8.562;2023-07-13T12:18:29;226.60;;;218.57;;
62332;SDS011;48624;49.812;8.562;2023-07-13T12:20:57;229.70;;;221.48;;
62332;SDS011;48624;49.812;8.562;2023-07-13T12:23:36;170.30;;;164.38;;
62332;SDS011;48624;49.812;8.562;2023-07-13T12:26:03;312.55;;;301.17;;
62332;SDS011;48624;49.812;8.562;2023-07-13T12:31:01;334.52;;;322.08;;
62332;SDS011;48624;49.812;8.562;2023-07-13T12:33:29;296.88;;;286.25;;
62332;SDS011;48624;49.812;8.562;2023-07-13T12:35:56;225.18;;;217.18;;
62332;SDS011;48624;49.812;8.562;2023-07-13T12:38:24;274.65;;;264.80;;
62332;SDS011;48624;49.812;8.562;2023-07-13T12:40:50;293.55;;;282.85;;
62332;SDS011;48624;49.812;8.562;2023-07-13T12:43:17;222.23;;;214.55;;
62332;SDS011;48624;49.812;8.562;2023-07-13T12:45:56;179.38;;;172.98;;
62332;SDS011;48624;49.812;8.562;2023-07-13T12:48:23;138.77;;;133.93;;
62332;SDS011;48624;49.812;8.562;2023-07-13T12:50:49;184.98;;;178.48;;
62332;SDS011;48624;49.812;8.562;2023-07-13T12:53:16;74.05;;;71.45;;
62332;SDS011;48624;49.812;8.562;2023-07-13T12:55:49;52.83;;;51.03;;
62332;SDS011;48624;49.812;8.562;2023-07-13T12:58:20;80.00;;;77.20;;
62332;SDS011;48624;49.812;8.562;2023-07-13T13:00:50;30.65;;;29.55;;
62332;SDS011;48624;49.812;8.562;2023-07-13T13:03:24;34.03;;;32.83;;
62332;SDS011;48624;49.812;8.562;2023-07-13T13:06:05;134.90;;;130.18;;
62332;SDS011;48624;49.812;8.562;2023-07-13T13:08:46;110.97;;;107.18;;
62332;SDS011;48624;49.812;8.562;2023-07-13T13:11:14;102.78;;;99.10;;
62332;SDS011;48624;49.812;8.562;2023-07-13T13:13:41;166.70;;;160.90;;
62332;SDS011;48624;49.812;8.562;2023-07-13T13:18:51;134.77;;;130.18;;
62332;SDS011;48624;49.812;8.562;2023-07-13T13:21:18;135.20;;;130.48;;
62332;SDS011;48624;49.812;8.562;2023-07-13T13:23:44;107.45;;;103.75;;
62332;SDS011;48624;49.812;8.562;2023-07-13T13:26:11;178.43;;;172.07;;
62332;SDS011;48624;49.812;8.562;2023-07-13T13:28:37;175.40;;;169.13;;
62332;SDS011;48624;49.812;8.562;2023-07-13T13:31:03;188.40;;;181.85;;
62332;SDS011;48624;49.812;8.562;2023-07-13T13:33:28;127.18;;;122.65;;
62332;SDS011;48624;49.812;8.562;2023-07-13T13:35:55;108.63;;;104.93;;
62332;SDS011;48624;49.812;8.562;2023-07-13T13:38:22;142.85;;;137.88;;
62332;SDS011;48624;49.812;8.562;2023-07-13T13:40:50;94.65;;;91.40;;
62332;SDS011;48624;49.812;8.562;2023-07-13T13:43:26;83.68;;;80.78;;
62332;SDS011;48624;49.812;8.562;2023-07-13T13:45:52;66.20;;;64.00;;
62332;SDS011;48624;49.812;8.562;2023-07-13T13:48:21;52.95;;;51.15;;
62332;SDS011;48624;49.812;8.562;2023-07-13T13:50:55;40.92;;;39.42;;
62332;SDS011;48624;49.812;8.562;2023-07-13T13:53:21;41.38;;;39.88;;
62332;SDS011;48624;49.812;8.562;2023-07-13T13:55:47;128.13;;;123.53;;
62332;SDS011;48624;49.812;8.562;2023-07-13T13:58:12;180.63;;;174.32;;
62332;SDS011;48624;49.812;8.562;2023-07-13T14:00:37;210.60;;;203.27;;
62332;SDS011;48624;49.812;8.562;2023-07-13T14:03:03;185.30;;;178.82;;
62332;SDS011;48624;49.812;8.562;2023-07-13T14:05:32;185.70;;;179.25;;
62332;SDS011;48624;49.812;8.562;2023-07-13T14:07:57;109.55;;;105.88;;
62332;SDS011;48624;49.812;8.562;2023-07-13T14:10:23;71.03;;;68.53;;
62332;SDS011;48624;49.812;8.562;2023-07-13T14:12:52;42.45;;;40.75;;
62332;SDS011;48624;49.812;8.562;2023-07-13T14:15:22;40.83;;;39.28;;
62332;SDS011;48624;49.812;8.562;2023-07-13T14:17:49;23.88;;;22.88;;
62332;SDS011;48624;49.812;8.562;2023-07-13T14:20:15;28.92;;;27.83;;
62332;SDS011;48624;49.812;8.562;2023-07-13T14:22:41;17.77;;;16.95;;
62332;SDS011;48624;49.812;8.562;2023-07-13T14:25:10;23.63;;;22.38;;
62332;SDS011;48624;49.812;8.562;2023-07-13T14:27:37;15.30;;;14.60;;
62332;SDS011;48624;49.812;8.562;2023-07-13T14:30:03;19.17;;;18.38;;
62332;SDS011;48624;49.812;8.562;2023-07-13T14:32:30;29.65;;;28.45;;
62332;SDS011;48624;49.812;8.562;2023-07-13T14:34:55;24.55;;;23.42;;
62332;SDS011;48624;49.812;8.562;2023-07-13T14:37:22;41.25;;;39.85;;
62332;SDS011;48624;49.812;8.562;2023-07-13T14:39:47;47.45;;;45.65;;
62332;SDS011;48624;49.812;8.562;2023-07-13T14:42:16;25.80;;;24.90;;
62332;SDS011;48624;49.812;8.562;2023-07-13T14:44:42;38.40;;;36.95;;